Time;durP1;ratioP1;P1;durP2;ratioP2;P2;SDS_P1;SDS_P2;PMS_P1;PMS_P2;Temp;Humidity;BMP_temperature;BMP_pressure;BME280_temperature;BME280_humidity;BME280_pressure;Samples;Min_cycle;Max_cycle;Signal;HPM_P1;HPM_P2
2021/04/17 00:02:10;;;;;;;8.18;4.28;;;77.00;2227.20;;;;;;5097415;28;20034;-69
2021/04/17 00:04:38;;;;;;;8.63;5.18;;;77.00;2227.20;;;;;;5098044;28;20024;-70
2021/04/17 00:07:05;;;;;;;7.57;4.72;;;77.00;2227.20;;;;;;5098103;28;20028;-71
2021/04/17 00:09:32;;;;;;;10.88;5.25;;;77.00;2227.20;;;;;;5097662;28;20468;-69
2021/04/17 00:12:00;;;;;;;8.50;5.63;;;77.00;2227.20;;;;;;5096868;28;20050;-70
2021/04/17 00:14:36;;;;;;;8.40;5.40;;;77.00;2227.20;;;;;;5097403;28;20023;-70
2021/04/17 00:17:03;;;;;;;7.65;5.00;;;77.00;2227.20;;;;;;5097638;28;20063;-71
2021/04/17 00:19:29;;;;;;;9.00;5.40;;;77.00;2227.20;;;;;;5097780;28;20055;-71
2021/04/17 00:21:55;;;;;;;8.55;5.63;;;77.00;2227.20;;;;;;5097245;28;20066;-70
2021/04/17 00:24:21;;;;;;;8.82;5.63;;;77.00;2227.20;;;;;;5097317;28;20330;-70
2021/04/17 00:26:47;;;;;;;8.55;5.30;;;77.10;2227.20;;;;;;5097566;28;20381;-70
2021/04/17 00:29:12;;;;;;;8.52;5.28;;;77.00;2227.20;;;;;;5096929;28;20044;-72
2021/04/17 00:31:39;;;;;;;8.05;4.88;;;77.10;2227.20;;;;;;5097192;28;20039;-70
2021/04/17 00:34:06;;;;;;;7.88;5.22;;;77.10;2227.20;;;;;;5097228;28;20038;-70
2021/04/17 00:36:32;;;;;;;8.23;5.50;;;77.10;2227.20;;;;;;5097489;28;20085;-70
2021/04/17 00:38:58;;;;;;;8.20;5.13;;;77.10;2227.20;;;;;;5096486;28;20443;-70
2021/04/17 00:41:24;;;;;;;7.32;4.90;;;77.00;2227.20;;;;;;5097121;28;20028;-70
2021/04/17 00:43:51;;;;;;;6.75;4.55;;;77.10;2227.20;;;;;;5106147;28;20085;-70
2021/04/17 00:46:19;;;;;;;7.15;4.18;;;77.00;2227.20;;;;;;5116849;28;20019;-69
2021/04/17 00:48:46;;;;;;;6.47;4.53;;;77.00;2227.20;;;;;;5111318;28;20089;-70
2021/04/17 00:51:12;;;;;;;6.30;4.55;;;77.00;2227.20;;;;;;5112584;28;20416;-71
2021/04/17 00:53:39;;;;;;;7.43;4.85;;;77.00;2227.20;;;;;;5106303;28;20020;-68
2021/04/17 00:56:06;;;;;;;8.32;4.45;;;77.00;2227.20;;;;;;5110999;28;20076;-70
2021/04/17 00:58:32;;;;;;;9.15;4.25;;;77.00;2227.20;;;;;;5116933;28;20464;-70
2021/04/17 01:00:58;;;;;;;8.30;4.93;;;76.90;2227.20;;;;;;5116820;28;20432;-71
2021/04/17 01:03:59;;;;;;;8.82;5.45;;;76.90;2227.20;;;;;;5116928;28;20059;-71
2021/04/17 01:06:38;;;;;;;9.13;5.57;;;76.90;2227.20;;;;;;5117112;28;20028;-71
2021/04/17 01:09:45;;;;;;;8.48;5.35;;;76.90;2227.20;;;;;;5116400;28;20074;-71
2021/04/17 01:12:19;;;;;;;9.13;4.95;;;76.90;2227.20;;;;;;5033744;28;20063;-71
2021/04/17 01:14:47;;;;;;;8.82;4.85;;;76.90;2227.20;;;;;;5033986;28;20173;-70
2021/04/17 01:17:14;;;;;;;8.48;5.28;;;77.00;2227.20;;;;;;5033667;28;20500;-70
2021/04/17 01:19:40;;;;;;;8.52;5.00;;;76.90;2227.20;;;;;;5033363;28;20067;-69
2021/04/17 01:22:16;;;;;;;6.63;4.45;;;76.90;2227.20;;;;;;5033485;28;20048;-70
2021/04/17 01:25:00;;;;;;;6.60;4.30;;;76.90;2227.20;;;;;;5033175;28;20026;-70
2021/04/17 01:27:25;;;;;;;6.22;4.43;;;76.90;2227.20;;;;;;5032754;28;20167;-71
2021/04/17 01:29:52;;;;;;;7.07;4.80;;;76.90;2227.20;;;;;;5032963;28;20132;-70
2021/04/17 01:32:18;;;;;;;8.25;4.90;;;76.90;2227.20;;;;;;5033744;28;20040;-72
2021/04/17 01:34:45;;;;;;;6.72;4.32;;;76.80;2227.20;;;;;;5032825;28;20033;-71
2021/04/17 01:37:11;;;;;;;8.07;5.13;;;76.90;2227.20;;;;;;5033575;28;20083;-71
2021/04/17 01:39:38;;;;;;;8.30;4.60;;;76.80;2227.20;;;;;;5033317;28;20045;-71
2021/04/17 01:42:11;;;;;;;6.50;4.60;;;76.80;2227.20;;;;;;5016249;28;20048;-69
2021/04/17 01:44:43;;;;;;;6.80;4.57;;;76.80;2227.20;;;;;;5033345;28;20076;-69
2021/04/17 01:47:13;;;;;;;7.32;4.47;;;76.80;2227.20;;;;;;5032574;28;20040;-70
2021/04/17 01:49:42;;;;;;;6.55;4.15;;;76.90;2227.20;;;;;;5111893;28;20459;-69
2021/04/17 01:52:10;;;;;;;6.80;4.53;;;76.80;2227.20;;;;;;5116150;28;20035;-71
2021/04/17 01:54:43;;;;;;;11.32;4.72;;;76.80;2227.20;;;;;;5116021;28;20032;-70
2021/04/17 01:57:12;;;;;;;7.28;4.25;;;76.80;2227.20;;;;;;5116165;28;20027;-70
2021/04/17 01:59:39;;;;;;;7.30;4.43;;;76.90;2227.20;;;;;;5115808;28;20421;-69
2021/04/17 02:02:05;;;;;;;6.70;4.00;;;76.90;2227.20;;;;;;5115510;28;20388;-70
2021/04/17 02:04:36;;;;;;;6.63;4.30;;;76.90;2227.20;;;;;;5116226;28;20372;-72
2021/04/17 02:07:03;;;;;;;8.13;4.63;;;76.90;2227.20;;;;;;5115334;28;20349;-69
2021/04/17 02:09:29;;;;;;;7.05;4.35;;;76.90;2227.20;;;;;;5115469;28;20035;-69
2021/04/17 02:11:55;;;;;;;6.75;4.40;;;77.10;2227.20;;;;;;5116053;28;20027;-70
2021/04/17 02:14:21;;;;;;;7.00;4.28;;;77.10;2227.20;;;;;;5115859;28;20537;-71
2021/04/17 02:16:46;;;;;;;7.57;4.55;;;77.10;2227.20;;;;;;5115461;28;20034;-70
2021/04/17 02:19:35;;;;;;;7.85;4.80;;;77.00;2227.20;;;;;;5115409;28;20038;-70
2021/04/17 02:22:01;;;;;;;;;;;77.10;2227.20;;;;;;5116252;28;20046;-71
2021/04/17 02:24:29;;;;;;;6.75;4.18;;;77.10;2227.20;;;;;;5115433;28;19966;-71
2021/04/17 02:26:55;;;;;;;5.70;4.20;;;77.10;2227.20;;;;;;5115176;28;20055;-70
2021/04/17 02:29:22;;;;;;;7.70;4.70;;;77.10;2227.20;;;;;;5115570;28;20088;-72
2021/04/17 02:31:47;;;;;;;6.40;4.00;;;77.10;2227.20;;;;;;5115857;28;20027;-70
2021/04/17 02:34:15;;;;;;;5.97;4.32;;;77.00;2227.20;;;;;;5115375;28;20033;-71
2021/04/17 02:36:41;;;;;;;6.65;4.00;;;76.80;2227.20;;;;;;5115262;28;20034;-71
2021/04/17 02:39:07;;;;;;;6.35;3.72;;;76.80;2227.20;;;;;;5114687;28;20055;-70
2021/04/17 02:41:32;;;;;;;6.85;4.53;;;76.80;2227.20;;;;;;5118043;28;20401;-70
2021/04/17 02:43:59;;;;;;;7.88;5.13;;;76.80;2227.20;;;;;;5117241;28;20026;-70
2021/04/17 02:46:25;;;;;;;7.93;4.95;;;76.90;2227.20;;;;;;5117973;28;20607;-70
2021/04/17 02:48:51;;;;;;;8.48;5.22;;;76.90;2227.20;;;;;;5117551;28;20413;-70
2021/04/17 02:51:17;;;;;;;7.80;4.85;;;77.00;2227.20;;;;;;5117357;28;20031;-70
2021/04/17 02:53:43;;;;;;;10.30;5.95;;;77.00;2227.20;;;;;;5117281;28;20027;-70
2021/04/17 02:56:08;;;;;;;8.43;5.80;;;77.10;2227.20;;;;;;5118169;28;20035;-69
2021/04/17 02:58:34;;;;;;;7.35;5.03;;;77.20;2227.20;;;;;;5116989;28;20112;-70
2021/04/17 03:01:01;;;;;;;7.95;4.57;;;77.20;2227.20;;;;;;5116972;28;20030;-71
2021/04/17 03:03:27;;;;;;;6.40;4.47;;;77.30;2227.20;;;;;;5117535;28;20046;-71
2021/04/17 03:05:53;;;;;;;9.00;4.78;;;77.30;2227.20;;;;;;5116932;28;20428;-70
2021/04/17 03:08:19;;;;;;;7.80;4.95;;;77.30;2227.20;;;;;;5117213;28;20020;-70
2021/04/17 03:10:45;;;;;;;7.20;4.97;;;77.20;2227.20;;;;;;5117081;28;20040;-70
2021/04/17 03:13:11;;;;;;;10.02;5.05;;;77.20;2227.20;;;;;;5117176;28;20110;-70
2021/04/17 03:15:37;;;;;;;9.95;5.15;;;77.20;2227.20;;;;;;5117404;28;20080;-70
2021/04/17 03:18:04;;;;;;;8.35;4.80;;;77.30;2227.20;;;;;;5117373;28;20027;-70
2021/04/17 03:20:29;;;;;;;6.63;4.90;;;77.30;2227.20;;;;;;5117337;28;20118;-70
2021/04/17 03:22:55;;;;;;;14.00;5.68;;;77.30;2227.20;;;;;;5117587;28;20114;-70
2021/04/17 03:25:21;;;;;;;8.82;5.18;;;77.20;2227.20;;;;;;5117047;28;20031;-70
2021/04/17 03:27:47;;;;;;;9.90;5.57;;;77.30;2227.20;;;;;;5105104;28;20028;-71
2021/04/17 03:30:16;;;;;;;10.43;5.85;;;77.20;2227.20;;;;;;5096240;28;20430;-70
2021/04/17 03:32:42;;;;;;;10.05;6.55;;;77.20;2227.20;;;;;;5096894;28;20115;-71
2021/04/17 03:35:10;;;;;;;14.63;8.25;;;77.30;2227.20;;;;;;5096788;28;20035;-70
2021/04/17 03:37:37;;;;;;;10.07;6.53;;;77.20;2227.20;;;;;;5097092;28;20069;-70
2021/04/17 03:40:06;;;;;;;11.98;6.63;;;77.30;2227.20;;;;;;5095839;28;20056;-70
2021/04/17 03:42:32;;;;;;;;;;;77.30;2227.20;;;;;;5097223;28;20028;-71
2021/04/17 03:44:58;;;;;;;15.57;6.50;;;77.30;2227.20;;;;;;5096499;28;19904;-70
2021/04/17 03:47:23;;;;;;;11.90;6.25;;;77.30;2227.20;;;;;;5098841;28;20028;-71
2021/04/17 03:49:49;;;;;;;8.52;5.40;;;77.30;2227.20;;;;;;5100031;28;20115;-71
2021/04/17 03:52:15;;;;;;;7.30;4.60;;;77.30;2227.20;;;;;;5100300;28;20484;-71
2021/04/17 03:54:41;;;;;;;6.13;4.15;;;77.30;2227.20;;;;;;5100296;28;20024;-69
2021/04/17 03:57:07;;;;;;;6.20;3.50;;;77.30;2227.20;;;;;;5100562;28;20024;-69
2021/04/17 03:59:33;;;;;;;7.18;3.65;;;77.30;2227.20;;;;;;5100170;28;20058;-71
2021/04/17 04:01:59;;;;;;;8.10;3.65;;;77.30;2227.20;;;;;;5100027;28;20028;-69
2021/04/17 04:04:25;;;;;;;6.38;3.60;;;77.40;2227.20;;;;;;5100103;28;20115;-69
2021/04/17 04:06:51;;;;;;;7.05;3.47;;;77.40;2227.20;;;;;;5100021;28;20028;-71
2021/04/17 04:09:17;;;;;;;8.93;5.93;;;77.30;2227.20;;;;;;5099952;28;20035;-70
2021/04/17 04:11:42;;;;;;;11.43;8.18;;;77.30;2227.20;;;;;;5100245;28;20372;-70
2021/04/17 04:14:08;;;;;;;8.23;5.35;;;77.40;2227.20;;;;;;5099613;28;20024;-69
2021/04/17 04:16:34;;;;;;;7.18;5.40;;;77.40;2227.20;;;;;;5099904;28;20028;-70
2021/04/17 04:19:00;;;;;;;8.43;6.10;;;77.50;2227.20;;;;;;5100107;28;20055;-70
2021/04/17 04:21:26;;;;;;;7.55;4.78;;;77.40;2227.20;;;;;;5099252;28;20078;-69
2021/04/17 04:23:51;;;;;;;6.50;3.90;;;77.50;2227.20;;;;;;5099762;28;20081;-69
2021/04/17 04:26:17;;;;;;;6.55;3.55;;;77.50;2227.20;;;;;;5099398;28;20030;-70
2021/04/17 04:28:44;;;;;;;6.25;4.20;;;77.50;2227.20;;;;;;5099338;28;20031;-70
2021/04/17 04:31:10;;;;;;;14.07;6.97;;;77.60;2227.20;;;;;;5099309;28;20024;-71
2021/04/17 04:33:36;;;;;;;10.63;6.38;;;77.50;2227.20;;;;;;5099314;28;20337;-71
2021/04/17 04:36:02;;;;;;;9.77;6.65;;;77.50;2227.20;;;;;;5099522;28;20047;-71
2021/04/17 04:38:27;;;;;;;10.88;6.68;;;77.50;2227.20;;;;;;5099542;28;20085;-71
2021/04/17 04:40:53;;;;;;;9.85;5.47;;;77.60;2227.20;;;;;;5099329;28;20337;-70
2021/04/17 04:43:19;;;;;;;10.32;5.20;;;77.60;2227.20;;;;;;5099108;28;20059;-70
2021/04/17 04:45:45;;;;;;;11.02;5.75;;;77.60;2227.20;;;;;;5099596;28;20324;-70
2021/04/17 04:48:11;;;;;;;16.23;9.45;;;102.40;2227.20;;;;;;5099007;28;20077;-70
2021/04/17 04:50:38;;;;;;;12.25;7.88;;;102.40;2227.20;;;;;;5099162;28;20032;-72
2021/04/17 04:53:04;;;;;;;11.65;4.57;;;102.60;2227.20;;;;;;5099498;28;20103;-70
2021/04/17 04:55:30;;;;;;;13.07;6.43;;;102.70;2227.20;;;;;;5098889;28;20087;-69
2021/04/17 04:57:56;;;;;;;22.92;15.30;;;102.70;2227.20;;;;;;5098446;28;20055;-69
2021/04/17 05:00:23;;;;;;;46.50;36.65;;;102.80;2227.20;;;;;;5099011;28;20035;-70
2021/04/17 05:02:49;;;;;;;19.88;11.73;;;102.80;2227.20;;;;;;5099273;28;20028;-70
2021/04/17 05:05:15;;;;;;;15.27;9.75;;;102.90;2227.20;;;;;;5098948;28;20048;-71
2021/04/17 05:07:41;;;;;;;19.67;9.80;;;102.90;2227.20;;;;;;5098900;28;20341;-70
2021/04/17 05:10:07;;;;;;;17.20;6.88;;;103.00;2227.20;;;;;;5098453;28;20028;-71
2021/04/17 05:12:33;;;;;;;10.05;6.47;;;103.10;2227.20;;;;;;5099093;28;20028;-70
2021/04/17 05:14:59;;;;;;;13.13;9.45;;;103.20;2227.20;;;;;;5098444;28;20019;-70
2021/04/17 05:17:25;;;;;;;14.52;9.13;;;103.20;2227.20;;;;;;5098736;28;20035;-72
2021/04/17 05:19:53;;;;;;;25.88;8.35;;;103.30;2227.20;;;;;;5098663;28;20032;-71
2021/04/17 05:22:19;;;;;;;14.85;7.57;;;128.00;2252.80;;;;;;5098287;28;20031;-70
2021/04/17 05:24:45;;;;;;;14.75;7.57;;;128.00;2252.80;;;;;;5098308;28;20028;-70
2021/04/17 05:27:11;;;;;;;33.20;9.13;;;128.00;2252.80;;;;;;5097930;28;20319;-69
2021/04/17 05:29:37;;;;;;;34.90;9.73;;;128.00;2252.80;;;;;;5098358;28;20032;-70
2021/04/17 05:32:03;;;;;;;18.42;8.77;;;103.20;2227.20;;;;;;5098166;28;20034;-70
2021/04/17 05:34:28;;;;;;;24.17;11.48;;;103.30;2227.20;;;;;;5098646;28;20402;-69
2021/04/17 05:36:54;;;;;;;162.98;50.30;;;103.30;2227.20;;;;;;5097757;28;20024;-71
2021/04/17 05:39:20;;;;;;;62.63;25.40;;;128.10;2252.80;;;;;;5097934;28;20058;-70
2021/04/17 05:41:46;;;;;;;45.05;19.67;;;128.20;2252.80;;;;;;5098214;28;20032;-70
2021/04/17 05:44:12;;;;;;;24.63;12.88;;;128.40;2252.80;;;;;;5098216;28;20137;-71
2021/04/17 05:46:43;;;;;;;29.85;12.63;;;128.60;2252.80;;;;;;5097889;28;20067;-70
2021/04/17 05:49:10;;;;;;;18.67;10.90;;;128.70;2252.80;;;;;;5098329;28;20051;-71
2021/04/17 05:51:39;;;;;;;23.65;11.70;;;128.70;2252.80;;;;;;5098105;28;20333;-69
2021/04/17 05:54:06;;;;;;;29.55;10.65;;;128.80;2252.80;;;;;;5097788;28;20031;-70
2021/04/17 05:56:32;;;;;;;23.80;9.57;;;128.90;2252.80;;;;;;5097988;28;20063;-69
2021/04/17 05:58:59;;;;;;;24.10;8.98;;;153.60;2252.80;;;;;;5097506;28;20403;-71
2021/04/17 06:01:25;;;;;;;18.98;8.45;;;153.80;2252.80;;;;;;5098067;28;20196;-70
2021/04/17 06:03:51;;;;;;;12.20;7.93;;;153.90;2252.80;;;;;;5097835;28;20116;-71
2021/04/17 06:06:17;;;;;;;15.73;8.00;;;154.00;2252.80;;;;;;5097580;28;20101;-70
2021/04/17 06:08:43;;;;;;;25.15;8.70;;;154.10;2252.80;;;;;;5097481;28;20028;-71
2021/04/17 06:11:09;;;;;;;22.83;10.60;;;154.10;2252.80;;;;;;5097636;28;20085;-70
2021/04/17 06:13:35;;;;;;;28.77;16.50;;;154.20;2252.80;;;;;;5097696;28;20028;-70
2021/04/17 06:16:04;;;;;;;21.77;10.10;;;154.20;2252.80;;;;;;5097140;28;20421;-71
2021/04/17 06:18:30;;;;;;;9.13;5.93;;;154.40;2252.80;;;;;;5097051;28;20024;-72
2021/04/17 06:20:56;;;;;;;12.52;7.18;;;154.50;2176.00;;;;;;5097045;28;20039;-70
2021/04/17 06:23:22;;;;;;;46.85;17.85;;;179.30;2176.00;;;;;;5097834;28;20031;-72
2021/04/17 06:25:48;;;;;;;19.90;10.23;;;179.50;2227.20;;;;;;5097014;28;20024;-71
2021/04/17 06:28:14;;;;;;;10.45;5.75;;;179.50;2176.00;;;;;;5097508;28;20143;-70
2021/04/17 06:30:39;;;;;;;13.35;6.80;;;179.50;2099.20;;;;;;5096837;28;20042;-69
2021/04/17 06:33:06;;;;;;;20.70;7.88;;;179.70;2150.40;;;;;;5097715;28;20024;-70
2021/04/17 06:35:32;;;;;;;36.80;22.77;;;179.80;2176.00;;;;;;5097006;28;20052;-70
2021/04/17 06:37:58;;;;;;;17.33;11.13;;;179.90;2201.60;;;;;;5097698;28;20115;-70
2021/04/17 06:40:24;;;;;;;9.10;7.18;;;180.00;2176.00;;;;;;5097774;28;20063;-70
2021/04/17 06:42:54;;;;;;;8.07;6.55;;;180.10;2176.00;;;;;;5096821;28;20371;-70
2021/04/17 06:45:23;;;;;;;6.28;3.90;;;204.90;2150.40;;;;;;5097321;28;20051;-70
2021/04/17 06:47:49;;;;;;;;;;;204.80;2073.60;;;;;;5098061;28;20110;-70
2021/04/17 06:50:17;;;;;;;6.95;4.10;;;204.80;2048.00;;;;;;5096947;28;20019;-71
2021/04/17 06:52:44;;;;;;;4.70;3.78;;;204.80;2099.20;;;;;;5097481;28;20371;-70
2021/04/17 06:55:11;;;;;;;16.55;8.07;;;205.00;2099.20;;;;;;5096783;28;20056;-71
2021/04/17 06:57:38;;;;;;;27.42;12.93;;;204.90;2201.60;;;;;;5097488;28;20028;-71
2021/04/17 07:00:06;;;;;;;33.47;16.70;;;205.10;2176.00;;;;;;5097197;28;20024;-71
2021/04/17 07:02:32;;;;;;;45.20;22.77;;;205.30;2201.60;;;;;;5097198;28;20368;-71
2021/04/17 07:04:58;;;;;;;49.70;26.08;;;205.50;2176.00;;;;;;5096860;28;20028;-70
2021/04/17 07:07:24;;;;;;;113.88;46.08;;;205.40;2201.60;;;;;;5097146;28;20051;-70
2021/04/17 07:09:52;;;;;;;13.98;8.73;;;205.40;2252.80;;;;;;5096431;28;20439;-72
2021/04/17 07:12:18;;;;;;;5.23;3.87;;;205.30;2201.60;;;;;;5097078;28;20024;-70
2021/04/17 07:14:46;;;;;;;5.53;3.92;;;205.20;2227.20;;;;;;5096722;28;20417;-72
2021/04/17 07:17:12;;;;;;;10.23;4.90;;;205.10;2252.80;;;;;;5096787;28;20047;-71
2021/04/17 07:19:51;;;;;;;7.88;4.60;;;205.20;2252.80;;;;;;5097291;28;20084;-70
2021/04/17 07:22:22;;;;;;;7.90;4.68;;;205.40;2252.80;;;;;;5098900;28;20020;-71
2021/04/17 07:24:53;;;;;;;8.30;4.70;;;205.50;2252.80;;;;;;5100928;28;20055;-71
2021/04/17 07:27:48;;;;;;;5.25;3.70;;;205.60;2252.80;;;;;;5101013;28;20028;-71
2021/04/17 07:30:17;;;;;;;11.57;4.25;;;205.50;2176.00;;;;;;5113013;28;20054;-71
2021/04/17 07:32:48;;;;;;;6.55;4.60;;;205.40;2176.00;;;;;;5121252;28;20356;-70
2021/04/17 07:35:19;;;;;;;6.32;3.80;;;205.30;2201.60;;;;;;5120577;28;20385;-71
2021/04/17 07:37:48;;;;;;;9.38;4.63;;;205.30;2201.60;;;;;;5120494;28;20023;-71
2021/04/17 07:40:17;;;;;;;7.47;4.05;;;205.10;2201.60;;;;;;5120910;28;20070;-71
2021/04/17 07:42:46;;;;;;;7.70;4.78;;;205.20;2227.20;;;;;;5120350;28;20322;-70
2021/04/17 07:45:28;;;;;;;9.90;4.75;;;205.20;2252.80;;;;;;5118455;28;20020;-71
2021/04/17 07:47:59;;;;;;;7.85;4.75;;;205.20;2252.80;;;;;;5107515;28;20024;-70
2021/04/17 07:50:36;;;;;;;6.28;4.00;;;205.10;2252.80;;;;;;5109865;28;20031;-70
2021/04/17 07:53:22;;;;;;;6.82;4.93;;;205.00;2252.80;;;;;;5099376;28;20377;-69
2021/04/17 07:55:48;;;;;;;6.18;4.70;;;204.80;2252.80;;;;;;5106709;28;20054;-70
2021/04/17 07:58:14;;;;;;;6.05;4.05;;;179.90;2252.80;;;;;;5112346;28;20494;-71
2021/04/17 08:00:40;;;;;;;6.80;4.72;;;179.70;2252.80;;;;;;5099625;28;20052;-70
2021/04/17 08:03:07;;;;;;;11.20;5.57;;;179.50;2252.80;;;;;;5118022;28;20035;-69
2021/04/17 08:05:34;;;;;;;8.98;5.35;;;179.40;2252.80;;;;;;5107605;28;20024;-70
2021/04/17 08:08:00;;;;;;;9.00;6.38;;;179.50;2252.80;;;;;;5107128;28;20382;-70
2021/04/17 08:10:26;;;;;;;20.77;8.13;;;179.50;2252.80;;;;;;5108075;28;20116;-69
2021/04/17 08:12:56;;;;;;;34.30;21.80;;;179.60;2252.80;;;;;;5088161;28;20073;-70
2021/04/17 08:15:23;;;;;;;71.93;44.67;;;179.70;2252.80;;;;;;5107969;28;20106;-69
2021/04/17 08:17:50;;;;;;;17.63;11.13;;;179.80;2252.80;;;;;;5107664;28;20024;-70
2021/04/17 08:20:18;;;;;;;8.73;5.20;;;180.00;2252.80;;;;;;5106254;28;20082;-69
2021/04/17 08:22:48;;;;;;;6.87;5.13;;;180.00;2252.80;;;;;;5107085;28;20024;-70
2021/04/17 08:25:18;;;;;;;11.93;7.45;;;180.00;2252.80;;;;;;5106648;28;20020;-70
2021/04/17 08:27:44;;;;;;;13.82;7.43;;;204.90;2252.80;;;;;;5108086;28;20023;-69
2021/04/17 08:30:19;;;;;;;9.98;6.60;;;204.90;2252.80;;;;;;5106773;28;20144;-71
2021/04/17 08:32:46;;;;;;;31.23;17.50;;;180.10;2252.80;;;;;;5106949;28;20024;-70
2021/04/17 08:35:20;;;;;;;15.75;9.57;;;180.10;2252.80;;;;;;5106861;28;20016;-68
2021/04/17 08:37:52;;;;;;;21.77;9.48;;;180.00;2252.80;;;;;;5109124;28;20027;-70
2021/04/17 08:40:36;;;;;;;14.40;7.90;;;179.80;2252.80;;;;;;5106749;28;20476;-70
2021/04/17 08:43:16;;;;;;;10.07;6.93;;;179.70;2252.80;;;;;;5108472;28;20038;-69
2021/04/17 08:46:13;;;;;;;13.82;6.35;;;179.70;2252.80;;;;;;5108904;28;20059;-70
2021/04/17 08:48:54;;;;;;;10.43;6.00;;;179.60;2252.80;;;;;;5107772;28;20070;-69
2021/04/17 08:51:23;;;;;;;9.65;6.40;;;179.60;2252.80;;;;;;5113714;28;20504;-69
2021/04/17 08:53:50;;;;;;;18.48;6.95;;;179.70;2252.80;;;;;;5129051;27;20410;-69
2021/04/17 08:56:42;;;;;;;13.65;6.65;;;179.60;2252.80;;;;;;5138719;27;20037;-70
2021/04/17 08:59:12;;;;;;;7.40;5.82;;;179.60;2252.80;;;;;;5138871;27;20340;-71
2021/04/17 09:01:46;;;;;;;10.82;7.38;;;179.50;2252.80;;;;;;5139610;27;20425;-70
2021/04/17 09:04:15;;;;;;;19.15;10.13;;;179.50;2252.80;;;;;;5120760;27;20058;-68
2021/04/17 09:06:48;;;;;;;72.10;35.55;;;179.60;2252.80;;;;;;5138844;27;20023;-69
2021/04/17 09:09:19;;;;;;;46.83;22.67;;;179.80;2252.80;;;;;;5139369;27;20039;-70
2021/04/17 09:11:47;;;;;;;29.88;15.13;;;179.90;2252.80;;;;;;5139368;27;20088;-69
2021/04/17 09:14:26;;;;;;;12.50;7.70;;;179.80;2252.80;;;;;;5138439;27;20030;-70
2021/04/17 09:16:58;;;;;;;12.98;8.38;;;179.50;2252.80;;;;;;5138505;27;20102;-70
2021/04/17 09:19:44;;;;;;;9.13;6.57;;;179.40;2252.80;;;;;;5139512;27;20062;-70
2021/04/17 09:22:26;;;;;;;8.85;6.25;;;179.50;2252.80;;;;;;5138383;27;20428;-68
2021/04/17 09:25:09;;;;;;;12.43;8.82;;;179.60;2252.80;;;;;;5138434;27;20348;-71
2021/04/17 09:27:39;;;;;;;21.95;13.32;;;179.50;2252.80;;;;;;5139306;27;20031;-70
2021/04/17 09:30:22;;;;;;;13.00;8.25;;;179.60;2252.80;;;;;;5099223;27;20090;-70
2021/04/17 09:32:51;;;;;;;13.90;8.05;;;179.50;2252.80;;;;;;5095984;28;20463;-70
2021/04/17 09:35:34;;;;;;;8.48;6.35;;;179.50;2252.80;;;;;;5096008;28;20492;-70
2021/04/17 09:38:16;;;;;;;14.48;8.10;;;179.40;2252.80;;;;;;5095892;28;20032;-68
2021/04/17 09:40:48;;;;;;;12.55;8.20;;;179.40;2252.80;;;;;;5095954;28;20044;-69
2021/04/17 09:43:37;;;;;;;9.18;7.13;;;179.40;2252.80;;;;;;5095440;28;20115;-70
2021/04/17 09:46:17;;;;;;;14.15;7.63;;;154.50;2252.80;;;;;;5095464;28;20030;-69
2021/04/17 09:48:45;;;;;;;10.02;6.10;;;179.20;2252.80;;;;;;5095914;28;20107;-70
2021/04/17 09:51:31;;;;;;;11.65;8.00;;;154.30;2252.80;;;;;;5129169;27;20026;-71
2021/04/17 09:54:05;;;;;;;8.10;6.22;;;154.20;2252.80;;;;;;5136329;27;20076;-71
2021/04/17 09:56:34;;;;;;;11.15;7.30;;;154.00;2252.80;;;;;;5136545;27;20027;-71
2021/04/17 09:59:07;;;;;;;9.98;8.05;;;153.80;2252.80;;;;;;5117749;27;20469;-69
2021/04/17 10:01:33;;;;;;;12.48;8.55;;;153.70;2252.80;;;;;;5114657;28;20051;-70
2021/04/17 10:04:01;;;;;;;10.75;7.63;;;153.80;2252.80;;;;;;5115324;28;20055;-70
2021/04/17 10:06:35;;;;;;;145.35;48.85;;;153.70;2252.80;;;;;;5115896;28;20031;-69
2021/04/17 10:09:06;;;;;;;23.35;12.68;;;153.70;2252.80;;;;;;5125684;27;20321;-70
2021/04/17 10:11:33;;;;;;;12.25;8.95;;;153.70;2252.80;;;;;;5135751;27;20059;-71
2021/04/17 10:13:59;;;;;;;14.40;9.43;;;128.90;2252.80;;;;;;5133499;27;20023;-71
2021/04/17 10:16:31;;;;;;;13.20;10.23;;;128.90;2252.80;;;;;;5098255;28;20437;-68
2021/04/17 10:18:58;;;;;;;14.98;10.20;;;128.90;2252.80;;;;;;5115221;28;20020;-68
2021/04/17 10:21:30;;;;;;;15.77;10.40;;;128.80;2252.80;;;;;;5115419;27;20037;-68
2021/04/17 10:24:25;;;;;;;12.40;9.52;;;128.70;2252.80;;;;;;5115509;28;20028;-69
2021/04/17 10:26:55;;;;;;;14.23;9.73;;;128.60;2252.80;;;;;;5115179;28;20024;-69
2021/04/17 10:29:42;;;;;;;13.55;10.00;;;128.60;2252.80;;;;;;5115578;28;20031;-69
2021/04/17 10:32:19;;;;;;;16.48;10.73;;;128.60;2252.80;;;;;;5099071;28;20587;-68
2021/04/17 10:34:51;;;;;;;16.95;11.02;;;128.60;2252.80;;;;;;5111044;28;20028;-69
2021/04/17 10:37:23;;;;;;;16.88;12.00;;;128.50;2252.80;;;;;;5107561;28;20031;-70
2021/04/17 10:40:06;;;;;;;14.80;11.15;;;128.60;2252.80;;;;;;5103350;28;20507;-70
2021/04/17 10:42:53;;;;;;;15.32;10.32;;;128.40;2252.80;;;;;;5104277;28;20064;-69
2021/04/17 10:45:23;;;;;;;15.95;11.10;;;128.30;2252.80;;;;;;5105670;28;20069;-69
2021/04/17 10:48:23;;;;;;;16.98;11.45;;;128.30;2252.80;;;;;;5103800;28;20430;-70
2021/04/17 10:51:05;;;;;;;15.98;10.77;;;128.40;2252.80;;;;;;5029527;28;20045;-70
2021/04/17 10:53:39;;;;;;;19.90;12.07;;;128.20;2252.80;;;;;;5031327;28;20021;-69
2021/04/17 10:56:14;;;;;;;16.67;11.00;;;128.20;2252.80;;;;;;5034251;28;20103;-70
2021/04/17 10:58:41;;;;;;;15.75;11.32;;;128.10;2252.80;;;;;;5034831;28;20026;-69
2021/04/17 11:01:12;;;;;;;17.15;11.52;;;128.10;2252.80;;;;;;5034927;28;20660;-69
2021/04/17 11:03:49;;;;;;;13.63;10.15;;;128.10;2252.80;;;;;;5035590;28;20065;-69
2021/04/17 11:06:19;;;;;;;16.23;11.52;;;128.20;2252.80;;;;;;5034902;28;20033;-70
2021/04/17 11:08:47;;;;;;;15.73;11.60;;;128.20;2252.80;;;;;;5034987;28;20462;-69
2021/04/17 11:11:16;;;;;;;15.35;11.35;;;128.20;2252.80;;;;;;5035715;28;20493;-69
2021/04/17 11:13:43;;;;;;;;;;;128.10;2252.80;;;;;;5036914;28;20458;-70
2021/04/17 11:16:14;;;;;;;21.80;13.95;;;128.20;2252.80;;;;;;5034192;28;19909;-72
2021/04/17 11:18:44;;;;;;;19.42;13.48;;;128.20;2252.80;;;;;;5032995;28;20029;-70
2021/04/17 11:21:10;;;;;;;17.13;13.57;;;128.10;2252.80;;;;;;5035637;28;20049;-70
2021/04/17 11:23:47;;;;;;;20.48;14.88;;;128.20;2252.80;;;;;;5048697;28;20316;-70
2021/04/17 11:26:23;;;;;;;18.92;12.80;;;128.20;2252.80;;;;;;5054397;28;20035;-68
2021/04/17 11:28:49;;;;;;;32.65;19.42;;;128.20;2252.80;;;;;;5107112;28;20592;-68
2021/04/17 11:31:25;;;;;;;27.83;15.88;;;128.30;2252.80;;;;;;5106237;28;20107;-69
2021/04/17 11:33:52;;;;;;;19.98;14.05;;;128.30;2252.80;;;;;;5106219;28;20409;-68
2021/04/17 11:36:23;;;;;;;25.10;16.58;;;128.20;2252.80;;;;;;5108076;28;20027;-69
2021/04/17 11:38:53;;;;;;;19.67;14.60;;;128.20;2252.80;;;;;;5107557;28;20148;-68
2021/04/17 11:41:20;;;;;;;23.92;15.90;;;128.20;2252.80;;;;;;5106145;28;20028;-70
2021/04/17 11:43:46;;;;;;;18.10;12.57;;;128.40;2252.80;;;;;;5107457;28;20024;-70
2021/04/17 11:46:16;;;;;;;18.00;13.70;;;128.40;2252.80;;;;;;5106440;28;20031;-71
2021/04/17 11:48:44;;;;;;;20.08;13.70;;;128.40;2252.80;;;;;;5105619;28;20158;-70
2021/04/17 11:51:11;;;;;;;24.17;14.97;;;128.40;2252.80;;;;;;5107388;28;20034;-70
2021/04/17 11:53:38;;;;;;;17.15;12.48;;;128.50;2252.80;;;;;;5106553;28;20024;-70
2021/04/17 11:56:04;;;;;;;17.77;13.40;;;128.60;2252.80;;;;;;5104774;28;20031;-69
2021/04/17 11:58:31;;;;;;;18.02;14.05;;;128.60;2252.80;;;;;;5106615;28;20332;-71
2021/04/17 12:00:57;;;;;;;19.67;13.27;;;128.50;2252.80;;;;;;5106948;28;20027;-69
2021/04/17 12:03:23;;;;;;;16.50;13.02;;;128.50;2252.80;;;;;;5105240;28;20020;-70
2021/04/17 12:05:51;;;;;;;19.95;15.32;;;128.50;2252.80;;;;;;5107280;28;20092;-70
2021/04/17 12:08:17;;;;;;;18.67;13.75;;;128.50;2252.80;;;;;;5106223;28;20061;-68
2021/04/17 12:10:44;;;;;;;21.30;14.85;;;128.40;2252.80;;;;;;5105314;28;20028;-68
2021/04/17 12:13:10;;;;;;;21.48;15.30;;;128.70;2252.80;;;;;;5106555;28;20100;-67
2021/04/17 12:15:37;;;;;;;21.13;14.73;;;128.70;2252.80;;;;;;5106169;28;20056;-68
2021/04/17 12:18:03;;;;;;;23.73;15.40;;;128.70;2252.80;;;;;;5104614;28;20459;-69
2021/04/17 12:20:29;;;;;;;17.50;12.73;;;128.70;2252.80;;;;;;5106606;28;20031;-70
2021/04/17 12:22:57;;;;;;;17.10;12.95;;;128.60;2252.80;;;;;;5106180;28;20024;-69
2021/04/17 12:25:24;;;;;;;20.13;14.13;;;128.60;2252.80;;;;;;5104904;28;20421;-70